createdAt,value
2022-12-13T00:00:40.760Z,28.83
2022-12-13T00:01:45.271Z,29.73
2022-12-13T00:02:47.421Z,28.65
2022-12-13T00:03:50.720Z,29.50
2022-12-13T00:04:53.744Z,28.30
2022-12-13T00:05:55.852Z,30.70
2022-12-13T00:06:58.884Z,29.48
2022-12-13T00:08:01.877Z,29.77
2022-12-13T00:09:07.253Z,30.02
2022-12-13T00:10:09.683Z,30.08
2022-12-13T00:11:14.787Z,30.30
2022-12-13T00:12:17.930Z,30.08
2022-12-13T00:13:19.929Z,30.42
2022-12-13T00:14:23.095Z,30.02
2022-12-13T00:15:25.096Z,30.38
2022-12-13T00:16:28.650Z,29.33
2022-12-13T00:17:32.095Z,30.75
2022-12-13T00:18:35.309Z,27.83
2022-12-13T00:19:38.647Z,29.17
2022-12-13T00:20:40.710Z,29.77
2022-12-13T00:21:43.863Z,29.92
2022-12-13T00:22:45.900Z,28.27
2022-12-13T00:23:49.431Z,29.65
2022-12-13T00:24:55.088Z,29.45
2022-12-13T00:26:02.661Z,28.73
2022-12-13T00:27:06.019Z,29.20
2022-12-13T00:28:08.591Z,30.33
2022-12-13T00:29:12.255Z,29.05
2022-12-13T00:30:14.580Z,30.95
2022-12-13T00:32:41.603Z,28.65
2022-12-13T00:33:43.774Z,29.23
2022-12-13T00:34:46.948Z,30.30
2022-12-13T00:35:49.114Z,28.52
2022-12-13T00:36:52.299Z,28.17
2022-12-13T00:37:54.444Z,29.92
2022-12-13T00:39:03.433Z,28.42
2022-12-13T00:40:08.362Z,28.42
2022-12-13T00:41:13.896Z,29.52
2022-12-13T00:42:17.080Z,30.00
2022-12-13T00:43:19.286Z,27.77
2022-12-13T00:44:22.500Z,27.95
2022-12-13T00:45:25.646Z,27.80
2022-12-13T00:46:28.680Z,29.08
2022-12-13T00:47:31.999Z,27.52
2022-12-13T00:48:34.130Z,28.30
2022-12-13T00:49:37.321Z,27.85
2022-12-13T00:50:39.518Z,28.65
2022-12-13T00:51:42.838Z,29.40
2022-12-13T00:52:46.200Z,28.27
2022-12-13T00:53:48.510Z,27.52
2022-12-13T00:54:51.659Z,28.20
2022-12-13T00:55:55.183Z,27.83
2022-12-13T00:56:58.398Z,27.15
2022-12-13T00:58:00.628Z,28.35
2022-12-13T00:59:04.658Z,28.92
2022-12-13T01:00:09.322Z,27.77
2022-12-13T01:01:13.644Z,27.40
2022-12-13T01:02:16.851Z,28.90
2022-12-13T01:03:25.446Z,29.20
2022-12-13T01:04:28.685Z,28.92
2022-12-13T01:06:04.152Z,27.75
2022-12-13T01:06:55.252Z,28.30
2022-12-13T01:07:57.939Z,27.83
2022-12-13T01:09:01.843Z,28.45
2022-12-13T01:10:07.255Z,28.63
2022-12-13T01:11:11.672Z,28.60
2022-12-13T01:12:15.334Z,28.90
2022-12-13T01:13:17.589Z,28.02
2022-12-13T01:14:20.947Z,28.08
2022-12-13T01:15:23.237Z,27.85
2022-12-13T01:16:26.592Z,28.15
2022-12-13T01:17:30.732Z,26.80
2022-12-13T01:18:34.047Z,26.38
2022-12-13T01:19:37.294Z,28.08
2022-12-13T01:20:39.527Z,29.20
2022-12-13T01:21:42.812Z,29.77
2022-12-13T01:22:46.067Z,27.20
2022-12-13T01:23:48.279Z,28.55
2022-12-13T01:24:51.426Z,28.92
2022-12-13T01:25:53.722Z,27.63
2022-12-13T01:26:58.333Z,28.20
2022-12-13T01:28:00.537Z,28.02
2022-12-13T01:29:05.353Z,28.77
2022-12-13T01:30:08.187Z,27.77
2022-12-13T01:31:13.100Z,28.13
2022-12-13T01:32:16.297Z,27.55
2022-12-13T01:33:18.878Z,27.65
2022-12-13T01:34:26.304Z,28.23
2022-12-13T01:35:29.004Z,27.67
2022-12-13T01:36:32.157Z,28.05
2022-12-13T01:37:40.474Z,27.88
2022-12-13T01:38:43.884Z,27.40
2022-12-13T01:39:47.056Z,26.67
2022-12-13T01:40:57.767Z,28.27
2022-12-13T01:42:05.435Z,28.02
2022-12-13T01:43:14.895Z,28.00
2022-12-13T01:44:55.048Z,27.73
2022-12-13T01:45:58.273Z,26.40
2022-12-13T01:47:01.142Z,26.90
2022-12-13T01:48:07.782Z,27.38
2022-12-13T01:49:20.066Z,27.90
2022-12-13T01:50:27.305Z,28.95
2022-12-13T01:51:35.300Z,27.25
2022-12-13T01:52:38.566Z,27.90
2022-12-13T01:53:44.862Z,27.17
2022-12-13T01:54:51.083Z,27.98
2022-12-13T01:55:58.262Z,27.65
2022-12-13T01:57:03.476Z,26.67
2022-12-13T01:58:08.071Z,26.73
2022-12-13T01:59:11.772Z,28.38
2022-12-13T02:00:16.714Z,27.73
2022-12-13T02:01:19.221Z,27.73
2022-12-13T02:02:23.242Z,28.42
2022-12-13T02:03:26.537Z,26.85
2022-12-13T02:04:32.106Z,28.30
2022-12-13T02:05:38.314Z,26.33
2022-12-13T02:06:44.640Z,28.30
2022-12-13T02:07:47.880Z,26.42
2022-12-13T02:08:51.086Z,27.00
2022-12-13T02:09:56.361Z,28.02
2022-12-13T02:11:00.579Z,27.58
2022-12-13T02:12:04.958Z,29.30
2022-12-13T02:13:09.546Z,27.70
2022-12-13T02:14:12.718Z,29.10
2022-12-13T02:15:17.699Z,27.83
2022-12-13T02:16:38.887Z,27.52
2022-12-13T02:19:38.462Z,25.95
2022-12-13T02:21:18.172Z,26.85
2022-12-13T02:22:38.863Z,26.55
2022-12-13T02:25:20.741Z,26.05
2022-12-13T02:26:57.917Z,25.40
2022-12-13T02:28:31.845Z,26.60
2022-12-13T02:30:04.029Z,25.15
2022-12-13T02:31:13.744Z,25.85
2022-12-13T02:32:22.150Z,27.70
2022-12-13T02:33:39.241Z,27.23
2022-12-13T02:34:46.026Z,27.05
2022-12-13T02:35:54.306Z,26.92
2022-12-13T02:37:03.197Z,26.80
2022-12-13T02:38:13.024Z,28.27
2022-12-13T02:39:30.636Z,27.10
2022-12-13T02:40:39.614Z,27.77
2022-12-13T02:41:49.945Z,27.13
2022-12-13T02:43:00.307Z,26.63
2022-12-13T02:44:21.654Z,27.00
2022-12-13T02:45:30.440Z,26.83
2022-12-13T02:46:40.838Z,26.75
2022-12-13T02:47:44.356Z,28.15
2022-12-13T02:48:51.195Z,27.60
2022-12-13T02:49:58.200Z,27.10
2022-12-13T02:51:04.319Z,27.55
2022-12-13T02:52:08.316Z,27.15
2022-12-13T02:53:13.963Z,28.65
2022-12-13T02:54:16.111Z,27.85
2022-12-13T02:55:21.145Z,27.40
2022-12-13T02:56:27.129Z,28.50
2022-12-13T02:57:31.551Z,27.17
2022-12-13T02:58:37.678Z,26.92
2022-12-13T02:59:40.652Z,27.63
2022-12-13T03:00:55.512Z,28.13
2022-12-13T03:02:12.522Z,27.05
2022-12-13T03:03:34.199Z,25.83
2022-12-13T03:05:06.610Z,26.90
2022-12-13T03:06:34.157Z,26.15
2022-12-13T03:07:41.325Z,26.38
2022-12-13T03:08:53.266Z,27.55
2022-12-13T03:10:02.095Z,27.05
2022-12-13T03:11:08.535Z,25.60
2022-12-13T03:12:40.865Z,27.90
2022-12-13T03:13:52.070Z,25.25
2022-12-13T03:14:58.754Z,28.35
2022-12-13T03:16:09.669Z,26.67
2022-12-13T03:17:18.129Z,26.75
2022-12-13T03:18:22.424Z,26.33
2022-12-13T03:19:26.042Z,27.48
2022-12-13T03:20:29.554Z,27.88
2022-12-13T03:21:44.081Z,26.75
2022-12-13T03:22:50.922Z,26.45
2022-12-13T03:23:54.585Z,27.95
2022-12-13T03:24:56.808Z,26.50
2022-12-13T03:26:06.209Z,26.55
2022-12-13T03:27:09.397Z,27.25
2022-12-13T03:28:12.715Z,27.30
2022-12-13T03:29:24.637Z,28.05
2022-12-13T03:30:28.214Z,26.77
2022-12-13T03:31:32.103Z,27.67
2022-12-13T03:32:35.737Z,25.58
2022-12-13T03:33:39.710Z,27.35
2022-12-13T03:34:43.282Z,26.10
2022-12-13T03:35:48.234Z,28.05
2022-12-13T03:36:50.494Z,27.70
2022-12-13T03:37:53.950Z,26.42
2022-12-13T03:38:57.607Z,27.15
2022-12-13T03:40:00.037Z,27.23
2022-12-13T03:41:05.644Z,27.75
2022-12-13T03:42:07.915Z,27.10
2022-12-13T03:43:11.189Z,26.67
2022-12-13T03:44:13.986Z,27.33
2022-12-13T03:45:18.882Z,27.40
2022-12-13T03:46:21.079Z,26.38
2022-12-13T03:47:24.282Z,27.08
2022-12-13T03:48:28.273Z,26.27
2022-12-13T03:49:35.752Z,26.85
2022-12-13T03:50:38.109Z,26.83
2022-12-13T03:51:41.765Z,27.17
2022-12-13T03:52:44.434Z,26.17
2022-12-13T03:53:48.143Z,27.10
2022-12-13T03:54:50.362Z,26.85
2022-12-13T03:55:53.914Z,27.15
2022-12-13T03:56:56.097Z,27.80
2022-12-13T03:58:03.232Z,26.85
2022-12-13T03:59:09.411Z,26.83
2022-12-13T04:00:13.265Z,27.90
2022-12-13T04:01:18.226Z,26.75
2022-12-13T04:02:30.671Z,27.65
2022-12-13T04:03:36.921Z,25.85
2022-12-13T04:04:39.135Z,26.50
2022-12-13T04:05:42.563Z,25.67
2022-12-13T04:06:45.803Z,26.35
2022-12-13T04:07:48.728Z,27.23
2022-12-13T04:08:52.684Z,26.35
2022-12-13T04:09:54.977Z,27.60
2022-12-13T04:10:58.257Z,27.75
2022-12-13T04:12:18.776Z,26.67
2022-12-13T04:13:32.981Z,25.90
2022-12-13T04:14:36.302Z,26.30
2022-12-13T04:15:39.325Z,26.63
2022-12-13T04:16:42.560Z,26.95
2022-12-13T04:17:44.688Z,25.60
2022-12-13T04:18:55.772Z,27.05
2022-12-13T04:19:57.906Z,26.65
2022-12-13T04:21:01.068Z,27.63
2022-12-13T04:22:03.263Z,28.50
2022-12-13T04:23:10.171Z,27.58
2022-12-13T04:24:13.966Z,26.92
2022-12-13T04:25:16.587Z,27.33
2022-12-13T04:26:20.633Z,27.10
2022-12-13T04:27:22.827Z,28.50
2022-12-13T04:28:26.056Z,27.58
2022-12-13T04:29:34.107Z,27.98
2022-12-13T04:30:38.440Z,27.45
2022-12-13T04:31:41.898Z,26.95
2022-12-13T04:32:44.212Z,26.30
2022-12-13T04:33:47.415Z,27.83
2022-12-13T04:34:50.950Z,27.60
2022-12-13T04:35:54.231Z,26.92
2022-12-13T04:36:56.445Z,27.50
2022-12-13T04:37:59.988Z,26.90
2022-12-13T04:39:02.725Z,27.63
2022-12-13T04:40:07.228Z,26.73
2022-12-13T04:41:15.514Z,27.27
2022-12-13T04:42:18.713Z,27.02
2022-12-13T04:43:22.178Z,26.08
2022-12-13T04:44:28.155Z,26.85
2022-12-13T04:45:33.310Z,26.42
2022-12-13T04:46:35.519Z,26.52
2022-12-13T04:47:38.723Z,26.35
2022-12-13T04:48:40.863Z,25.75
2022-12-13T04:49:44.009Z,25.77
2022-12-13T04:50:47.685Z,26.10
2022-12-13T04:51:52.735Z,26.00
2022-12-13T04:52:59.187Z,25.65
2022-12-13T04:54:23.555Z,25.77
2022-12-13T04:55:24.580Z,25.48
2022-12-13T04:56:26.705Z,25.42
2022-12-13T04:57:29.812Z,25.58
2022-12-13T04:58:32.421Z,25.38
2022-12-13T04:59:35.788Z,25.77
2022-12-13T05:00:39.943Z,25.13
2022-12-13T05:01:47.601Z,25.55
2022-12-13T05:02:49.936Z,25.70
2022-12-13T05:03:53.291Z,25.63
2022-12-13T05:04:55.460Z,26.23
2022-12-13T05:06:00.828Z,24.73
2022-12-13T05:07:03.728Z,26.70
2022-12-13T05:08:07.122Z,23.65
2022-12-13T05:09:11.323Z,24.95
2022-12-13T05:10:34.129Z,25.08
2022-12-13T05:11:38.896Z,22.50
2022-12-13T05:12:48.182Z,23.75
2022-12-13T05:13:51.433Z,24.58
2022-12-13T05:14:54.044Z,24.92
2022-12-13T05:15:57.757Z,23.33
2022-12-13T05:17:00.130Z,25.00
2022-12-13T05:18:09.786Z,25.05
2022-12-13T05:19:13.965Z,23.48
2022-12-13T05:20:16.298Z,24.65
2022-12-13T05:21:20.874Z,23.88
2022-12-13T05:22:23.107Z,24.13
2022-12-13T05:23:26.349Z,23.23
2022-12-13T05:24:28.723Z,23.27
2022-12-13T05:25:32.021Z,24.20
2022-12-13T05:26:35.267Z,23.45
2022-12-13T05:27:38.520Z,23.92
2022-12-13T05:28:40.683Z,24.67
2022-12-13T05:29:43.901Z,25.20
2022-12-13T05:30:46.124Z,24.65
2022-12-13T05:31:49.576Z,24.67
2022-12-13T05:32:52.848Z,23.20
2022-12-13T05:33:55.162Z,22.85
2022-12-13T05:35:05.078Z,23.15
2022-12-13T05:36:08.168Z,23.27
2022-12-13T05:37:12.770Z,24.55
2022-12-13T05:38:15.513Z,23.42
2022-12-13T05:39:29.432Z,23.33
2022-12-13T05:40:32.659Z,23.27
2022-12-13T05:41:38.007Z,23.85
2022-12-13T05:42:40.166Z,22.88
2022-12-13T05:43:43.904Z,22.95
2022-12-13T05:44:46.250Z,22.92
2022-12-13T05:45:49.585Z,23.13
2022-12-13T05:46:51.815Z,23.33
2022-12-13T05:47:55.138Z,22.92
2022-12-13T05:48:57.258Z,22.95
2022-12-13T05:50:00.719Z,23.35
2022-12-13T05:51:11.080Z,23.75
2022-12-13T05:52:19.045Z,23.00
2022-12-13T05:53:30.858Z,23.50
2022-12-13T05:54:34.459Z,23.10
2022-12-13T05:55:38.813Z,22.90
2022-12-13T05:56:41.029Z,23.65
2022-12-13T05:57:50.379Z,24.23
2022-12-13T05:58:54.416Z,23.10
2022-12-13T05:59:58.827Z,23.20
2022-12-13T06:01:06.759Z,23.25
2022-12-13T06:02:10.024Z,23.73
2022-12-13T06:03:12.464Z,24.75
2022-12-13T06:04:22.347Z,23.65
2022-12-13T06:06:30.156Z,22.63
2022-12-13T06:07:33.977Z,23.58
2022-12-13T06:08:38.135Z,24.15
2022-12-13T06:09:40.373Z,24.00
2022-12-13T06:10:43.572Z,23.10
2022-12-13T06:11:45.738Z,23.42
2022-12-13T06:12:48.933Z,24.38
2022-12-13T06:13:52.330Z,23.67
2022-12-13T06:15:04.809Z,23.10
2022-12-13T06:16:25.435Z,24.23
2022-12-13T06:17:31.027Z,24.30
2022-12-13T06:18:35.774Z,22.85
2022-12-13T06:19:39.042Z,23.33
2022-12-13T06:20:41.282Z,22.65
2022-12-13T06:21:46.433Z,21.90
2022-12-13T06:22:51.161Z,22.27
2022-12-13T06:23:56.461Z,21.77
2022-12-13T06:25:01.577Z,21.20
2022-12-13T06:26:05.197Z,21.80
2022-12-13T06:27:08.351Z,22.77
2022-12-13T06:28:11.522Z,21.65
2022-12-13T06:29:24.540Z,21.38
2022-12-13T06:30:28.488Z,21.02
2022-12-13T06:31:30.628Z,21.77
2022-12-13T06:32:33.826Z,22.08
2022-12-13T06:33:36.719Z,21.13
2022-12-13T06:34:39.928Z,20.98
2022-12-13T06:35:42.344Z,21.88
2022-12-13T06:36:45.492Z,22.08
2022-12-13T06:37:54.414Z,21.55
2022-12-13T06:39:05.186Z,22.10
2022-12-13T06:40:09.336Z,22.67
2022-12-13T06:41:17.186Z,21.85
2022-12-13T06:42:21.852Z,21.23
2022-12-13T06:43:24.599Z,23.20
2022-12-13T06:44:27.964Z,22.30
2022-12-13T06:45:31.115Z,22.63
2022-12-13T06:46:34.492Z,22.48
2022-12-13T06:47:37.857Z,21.95
2022-12-13T06:48:40.701Z,20.95
2022-12-13T06:49:44.808Z,22.27
2022-12-13T06:50:48.673Z,23.13
2022-12-13T06:51:51.890Z,21.98
2022-12-13T06:52:56.598Z,22.20
2022-12-13T06:54:00.935Z,21.35
2022-12-13T06:55:04.573Z,22.90
2022-12-13T06:56:09.702Z,21.23
2022-12-13T06:57:12.927Z,21.45
2022-12-13T06:58:16.114Z,23.00
2022-12-13T06:59:19.340Z,21.67
2022-12-13T07:00:24.939Z,21.98
2022-12-13T07:01:36.989Z,21.70
2022-12-13T07:02:40.156Z,20.83
2022-12-13T07:03:43.612Z,22.80
2022-12-13T07:04:46.866Z,22.42
2022-12-13T07:05:52.442Z,22.48
2022-12-13T07:07:01.401Z,20.70
2022-12-13T07:08:07.440Z,21.17
2022-12-13T07:09:10.728Z,23.35
2022-12-13T07:10:22.202Z,22.25
2022-12-13T07:11:28.993Z,22.02
2022-12-13T07:12:32.881Z,22.45
2022-12-13T07:13:36.060Z,21.45
2022-12-13T07:14:41.014Z,22.50
2022-12-13T07:15:44.657Z,22.73
2022-12-13T07:16:47.899Z,23.13
2022-12-13T07:17:51.823Z,24.73
2022-12-13T07:18:54.542Z,23.15
2022-12-13T07:20:09.259Z,22.88
2022-12-13T07:21:21.655Z,23.52
2022-12-13T07:22:25.622Z,23.33
2022-12-13T07:23:30.420Z,22.27
2022-12-13T07:24:33.663Z,22.67
2022-12-13T07:25:36.991Z,22.27
2022-12-13T07:26:39.225Z,22.30
2022-12-13T07:27:44.743Z,22.08
2022-12-13T07:28:53.059Z,22.00
2022-12-13T07:29:58.201Z,20.80
2022-12-13T07:31:02.471Z,21.55
2022-12-13T07:32:06.038Z,21.85
2022-12-13T07:33:08.621Z,22.60
2022-12-13T07:34:15.613Z,22.17
2022-12-13T07:35:19.064Z,22.40
2022-12-13T07:36:24.358Z,22.25
2022-12-13T07:37:30.060Z,22.08
2022-12-13T07:38:35.634Z,22.02
2022-12-13T07:39:39.011Z,22.13
2022-12-13T07:40:42.396Z,23.10
2022-12-13T07:41:45.599Z,22.23
2022-12-13T07:42:51.149Z,22.25
2022-12-13T07:43:56.073Z,21.67
2022-12-13T07:44:59.493Z,21.17
2022-12-13T07:46:04.204Z,22.45
2022-12-13T07:47:07.461Z,22.40
2022-12-13T07:48:10.677Z,22.45
2022-12-13T07:49:13.889Z,22.05
2022-12-13T07:50:24.326Z,22.05
2022-12-13T07:51:28.806Z,21.75
2022-12-13T07:52:31.975Z,22.38
2022-12-13T07:53:36.804Z,22.88
2022-12-13T07:54:40.237Z,22.30
2022-12-13T07:55:43.469Z,22.52
2022-12-13T07:56:46.685Z,21.73
2022-12-13T07:57:49.829Z,21.38
2022-12-13T07:58:53.365Z,21.08
2022-12-13T07:59:55.614Z,22.45
2022-12-13T08:01:01.335Z,21.98
2022-12-13T08:02:04.672Z,21.52
2022-12-13T08:03:12.153Z,21.52
2022-12-13T08:04:27.528Z,21.63
2022-12-13T08:05:38.337Z,20.15
2022-12-13T08:06:42.418Z,21.02
2022-12-13T08:07:44.577Z,20.52
2022-12-13T08:08:51.206Z,20.70
2022-12-13T08:09:55.373Z,20.48
2022-12-13T08:11:02.394Z,21.27
2022-12-13T08:12:06.415Z,21.52
2022-12-13T08:13:09.722Z,21.40
2022-12-13T08:14:12.952Z,22.08
2022-12-13T08:15:16.296Z,21.02
2022-12-13T08:16:27.350Z,21.38
2022-12-13T08:17:32.305Z,21.35
2022-12-13T08:18:34.538Z,20.27
2022-12-13T08:19:37.701Z,19.30
2022-12-13T08:20:40.876Z,19.88
2022-12-13T08:22:01.488Z,21.02
2022-12-13T08:23:05.264Z,19.48
2022-12-13T08:24:15.466Z,19.70
2022-12-13T08:25:19.257Z,19.42
2022-12-13T08:26:25.017Z,19.92
2022-12-13T08:27:28.522Z,18.98
2022-12-13T08:28:32.909Z,19.52
2022-12-13T08:29:36.569Z,18.83
2022-12-13T08:30:39.779Z,19.17
2022-12-13T08:31:43.000Z,19.27
2022-12-13T08:32:46.289Z,19.65
2022-12-13T08:33:49.675Z,20.48
2022-12-13T08:34:52.855Z,19.23
2022-12-13T08:35:55.031Z,20.52
2022-12-13T08:37:02.001Z,20.20
2022-12-13T08:38:06.359Z,19.63
2022-12-13T08:39:11.007Z,19.70
2022-12-13T08:40:14.246Z,19.58
2022-12-13T08:41:17.462Z,19.15
2022-12-13T08:42:20.719Z,19.08
2022-12-13T08:43:24.865Z,18.05
2022-12-13T08:44:28.499Z,19.70
2022-12-13T08:45:32.214Z,18.00
2022-12-13T08:46:35.563Z,18.40
2022-12-13T08:47:41.803Z,19.48
2022-12-13T08:48:45.474Z,17.85
2022-12-13T08:49:47.906Z,17.95
2022-12-13T08:50:51.342Z,18.48
2022-12-13T08:51:54.469Z,18.17
2022-12-13T08:52:57.756Z,18.73
2022-12-13T08:54:10.461Z,18.80
2022-12-13T08:55:18.990Z,18.42
2022-12-13T08:56:24.386Z,17.80
2022-12-13T08:57:27.568Z,18.58
2022-12-13T08:58:31.463Z,18.27
2022-12-13T08:59:34.608Z,17.80
2022-12-13T09:00:38.530Z,18.40
2022-12-13T09:01:41.827Z,18.30
2022-12-13T09:02:45.304Z,18.55
2022-12-13T09:03:47.597Z,18.17
2022-12-13T09:04:50.762Z,17.70
2022-12-13T09:05:53.921Z,17.85
2022-12-13T09:06:57.207Z,18.30
2022-12-13T09:08:24.030Z,17.77
2022-12-13T09:09:29.321Z,19.50
2022-12-13T09:10:38.470Z,17.88
2022-12-13T09:11:42.033Z,18.88
2022-12-13T09:12:45.214Z,17.88
2022-12-13T09:13:48.642Z,18.45
2022-12-13T09:14:51.821Z,19.80
2022-12-13T09:15:55.066Z,17.98
2022-12-13T09:17:05.095Z,17.52
2022-12-13T09:18:08.353Z,18.33
2022-12-13T09:19:25.194Z,17.60
2022-12-13T09:20:30.222Z,18.63
2022-12-13T09:21:33.745Z,17.08
2022-12-13T09:22:36.994Z,17.23
2022-12-13T09:23:48.468Z,17.83
2022-12-13T09:24:51.841Z,18.13
2022-12-13T09:26:05.546Z,17.15
2022-12-13T09:27:27.532Z,17.25
2022-12-13T09:28:31.942Z,17.80
2022-12-13T09:29:36.558Z,16.48
2022-12-13T09:30:40.597Z,16.85
2022-12-13T09:31:48.308Z,17.80
2022-12-13T09:32:57.401Z,18.33
2022-12-13T09:34:00.624Z,17.73
2022-12-13T09:35:05.303Z,18.30
2022-12-13T09:36:11.765Z,18.85
2022-12-13T09:37:14.980Z,17.55
2022-12-13T09:38:26.436Z,17.35
2022-12-13T09:39:29.766Z,17.27
2022-12-13T09:40:37.857Z,17.38
2022-12-13T09:41:47.198Z,16.98
2022-12-13T09:43:11.856Z,17.20
2022-12-13T09:44:30.997Z,16.58
2022-12-13T09:45:42.981Z,18.05
2022-12-13T09:46:48.532Z,18.92
2022-12-13T09:47:53.872Z,17.23
2022-12-13T09:49:13.424Z,18.33
2022-12-13T09:50:25.652Z,17.52
2022-12-13T09:51:39.503Z,17.40
2022-12-13T09:52:47.507Z,17.55
2022-12-13T09:53:54.349Z,17.60
2022-12-13T09:54:59.524Z,16.77
2022-12-13T09:56:10.049Z,17.52
2022-12-13T09:57:31.133Z,16.42
2022-12-13T09:58:37.282Z,16.40
2022-12-13T09:59:42.823Z,15.65
2022-12-13T10:00:48.431Z,15.98
2022-12-13T10:01:51.959Z,15.85
2022-12-13T10:02:58.243Z,15.35
2022-12-13T10:04:02.290Z,16.48
2022-12-13T10:05:22.874Z,18.02
2022-12-13T10:06:31.487Z,17.52
2022-12-13T10:07:34.692Z,15.85
2022-12-13T10:08:44.690Z,14.18
2022-12-13T10:09:48.696Z,15.45
2022-12-13T10:10:53.970Z,16.30
2022-12-13T10:12:00.565Z,15.10
2022-12-13T10:13:17.830Z,15.43
2022-12-13T10:14:27.555Z,16.75
2022-12-13T10:15:34.411Z,15.55
2022-12-13T10:16:46.128Z,16.58
2022-12-13T10:17:51.952Z,15.68
2022-12-13T10:18:59.144Z,15.68
2022-12-13T10:20:04.552Z,15.38
2022-12-13T10:21:12.830Z,16.50
2022-12-13T10:22:17.989Z,17.23
2022-12-13T10:23:38.543Z,15.90
2022-12-13T10:24:53.073Z,15.57
2022-12-13T10:26:02.937Z,15.82
2022-12-13T10:27:13.687Z,15.73
2022-12-13T10:28:19.832Z,12.10
2022-12-13T10:29:23.198Z,14.70
2022-12-13T10:30:29.173Z,15.35
2022-12-13T10:31:41.581Z,17.80
2022-12-13T10:32:51.131Z,18.63
2022-12-13T10:33:58.445Z,18.33
2022-12-13T10:35:02.152Z,20.45
2022-12-13T10:36:31.052Z,22.90
2022-12-13T10:37:34.309Z,19.45
2022-12-13T10:38:40.144Z,16.30
2022-12-13T10:39:44.633Z,16.00
2022-12-13T10:40:49.182Z,15.02
2022-12-13T10:42:04.014Z,16.60
2022-12-13T10:43:09.070Z,17.13
2022-12-13T10:44:25.364Z,16.55
2022-12-13T10:45:28.825Z,14.90
2022-12-13T10:46:38.358Z,15.43
2022-12-13T10:47:45.168Z,16.55
2022-12-13T10:48:50.481Z,16.98
2022-12-13T10:49:58.775Z,16.85
2022-12-13T10:51:05.360Z,15.75
2022-12-13T10:52:31.611Z,15.35
2022-12-13T10:53:40.280Z,15.45
2022-12-13T10:54:50.720Z,15.07
2022-12-13T10:56:02.258Z,16.05
2022-12-13T10:57:06.557Z,14.85
2022-12-13T10:58:20.952Z,15.30
2022-12-13T10:59:33.870Z,14.40
2022-12-13T11:00:41.068Z,15.57
2022-12-13T11:01:44.325Z,15.65
2022-12-13T11:02:55.320Z,15.73
2022-12-13T11:04:02.126Z,15.60
2022-12-13T11:05:25.178Z,15.73
2022-12-13T11:06:30.378Z,15.05
2022-12-13T11:07:34.854Z,15.15
2022-12-13T11:08:38.785Z,14.98
2022-12-13T11:09:42.009Z,15.13
2022-12-13T11:10:45.640Z,15.27
2022-12-13T11:11:57.990Z,14.77
2022-12-13T11:13:04.399Z,15.15
2022-12-13T11:14:14.935Z,14.73
2022-12-13T11:15:26.539Z,14.85
2022-12-13T11:16:35.350Z,14.18
2022-12-13T11:17:48.898Z,14.98
2022-12-13T11:18:55.340Z,13.88
2022-12-13T11:20:01.842Z,14.70
2022-12-13T11:21:07.767Z,14.38
2022-12-13T11:22:20.046Z,14.02
2022-12-13T11:23:29.791Z,14.40
2022-12-13T11:24:35.410Z,14.23
2022-12-13T11:25:42.451Z,14.75
2022-12-13T11:26:53.780Z,15.75
2022-12-13T11:28:26.588Z,14.55
2022-12-13T11:30:02.987Z,14.10
2022-12-13T11:31:14.519Z,15.35
2022-12-13T11:32:28.449Z,13.60
2022-12-13T11:33:48.031Z,14.52
2022-12-13T11:35:00.086Z,14.55
2022-12-13T11:36:16.289Z,15.95
2022-12-13T11:37:29.918Z,15.68
2022-12-13T11:38:37.489Z,15.05
2022-12-13T11:39:46.780Z,15.18
2022-12-13T11:40:54.292Z,15.50
2022-12-13T11:42:02.814Z,15.60
2022-12-13T11:43:13.260Z,15.80
2022-12-13T11:44:22.896Z,15.95
2022-12-13T11:45:31.876Z,15.60
2022-12-13T11:46:41.834Z,15.60
2022-12-13T11:47:49.369Z,16.20
2022-12-13T11:48:57.861Z,15.05
2022-12-13T11:50:04.559Z,15.00
2022-12-13T11:51:11.493Z,15.73
2022-12-13T11:52:20.061Z,15.95
2022-12-13T11:53:31.351Z,14.95
2022-12-13T11:54:43.980Z,14.77
2022-12-13T11:55:53.499Z,14.82
2022-12-13T11:57:00.224Z,14.52
2022-12-13T11:58:16.438Z,15.10
2022-12-13T11:59:29.713Z,15.07
2022-12-13T12:00:37.077Z,16.35
2022-12-13T12:01:47.375Z,16.10
2022-12-13T12:03:00.063Z,15.02
2022-12-13T12:04:13.853Z,15.20
2022-12-13T12:05:28.403Z,14.30
2022-12-13T12:06:38.631Z,14.73
2022-12-13T12:08:12.685Z,14.68
2022-12-13T12:09:15.977Z,15.48
2022-12-13T12:10:28.243Z,14.23
2022-12-13T12:11:36.853Z,15.15
2022-12-13T12:12:43.944Z,14.65
2022-12-13T12:13:52.722Z,15.60
2022-12-13T12:15:15.082Z,15.25
2022-12-13T12:16:28.458Z,13.98
2022-12-13T12:17:42.045Z,14.93
2022-12-13T12:18:45.878Z,15.10
2022-12-13T12:19:53.660Z,15.32
2022-12-13T12:21:07.341Z,14.98
2022-12-13T12:22:24.444Z,15.23
2022-12-13T12:23:46.233Z,15.52
2022-12-13T12:25:04.085Z,15.35
2022-12-13T12:26:10.253Z,15.52
2022-12-13T12:27:26.098Z,14.70
2022-12-13T12:28:44.331Z,15.50
2022-12-13T12:30:03.913Z,14.93
2022-12-13T12:31:17.050Z,14.75
2022-12-13T12:32:31.233Z,14.75
2022-12-13T12:33:46.334Z,13.77
2022-12-13T12:34:57.548Z,14.70
2022-12-13T12:36:15.419Z,14.73
2022-12-13T12:37:25.918Z,15.45
2022-12-13T12:38:58.991Z,14.98
2022-12-13T12:40:46.200Z,14.63
2022-12-13T12:42:17.413Z,14.52
2022-12-13T12:43:27.798Z,14.48
2022-12-13T12:44:43.616Z,15.38
2022-12-13T12:46:00.176Z,15.20
2022-12-13T12:49:02.138Z,15.88
2022-12-13T12:50:24.648Z,16.17
2022-12-13T12:51:34.908Z,16.05
2022-12-13T12:52:49.764Z,12.70
2022-12-13T12:54:00.926Z,17.00
2022-12-13T12:55:12.282Z,15.95
2022-12-13T12:56:36.611Z,16.92
2022-12-13T12:57:50.468Z,16.80
2022-12-13T12:59:05.978Z,17.73
2022-12-13T13:00:13.396Z,18.30
2022-12-13T13:01:34.694Z,18.33
2022-12-13T13:02:47.701Z,18.77
2022-12-13T13:04:01.482Z,19.13
2022-12-13T13:05:17.459Z,19.92
2022-12-13T13:06:24.591Z,19.13
2022-12-13T13:07:39.629Z,19.65
2022-12-13T13:08:54.838Z,18.63
2022-12-13T13:09:59.645Z,19.73
2022-12-13T13:11:25.122Z,20.20
2022-12-13T13:12:33.229Z,20.38
2022-12-13T13:13:46.593Z,20.02
2022-12-13T13:14:50.360Z,20.20
2022-12-13T13:15:59.759Z,20.40
2022-12-13T13:17:42.670Z,20.70
2022-12-13T13:18:50.933Z,20.70
2022-12-13T13:20:13.247Z,20.88
2022-12-13T13:21:41.999Z,20.35
2022-12-13T13:22:58.521Z,20.75
2022-12-13T13:24:24.909Z,20.27
2022-12-13T13:25:35.221Z,20.60
2022-12-13T13:26:49.816Z,21.17
2022-12-13T13:28:01.842Z,21.52
2022-12-13T13:29:38.984Z,22.25
2022-12-13T13:31:05.361Z,20.98
2022-12-13T13:32:31.824Z,21.42
2022-12-13T13:33:45.720Z,21.95
2022-12-13T13:35:00.661Z,23.15
2022-12-13T13:36:49.129Z,22.10
2022-12-13T13:37:52.332Z,22.15
2022-12-13T13:39:01.641Z,22.77
2022-12-13T13:40:31.680Z,23.20
2022-12-13T13:41:55.744Z,24.00
2022-12-13T13:43:19.381Z,22.33
2022-12-13T13:44:50.294Z,23.00
2022-12-13T13:46:00.501Z,22.45
2022-12-13T13:47:15.260Z,22.92
2022-12-13T13:48:36.824Z,23.35
2022-12-13T13:49:55.840Z,23.10
2022-12-13T13:51:49.401Z,22.80
2022-12-13T13:53:12.827Z,23.38
2022-12-13T13:54:55.914Z,23.30
2022-12-13T13:56:08.441Z,22.60
2022-12-13T13:58:09.727Z,23.77
2022-12-13T14:00:02.972Z,23.17
2022-12-13T14:02:01.046Z,24.38
2022-12-13T14:03:38.689Z,22.80
2022-12-13T14:05:31.717Z,22.33
2022-12-13T14:07:11.947Z,23.00
2022-12-13T14:08:20.802Z,24.45
2022-12-13T14:09:55.257Z,23.85
2022-12-13T14:11:23.562Z,24.05
2022-12-13T14:13:19.616Z,23.60
2022-12-13T14:15:01.310Z,24.48
2022-12-13T14:16:46.235Z,23.80
2022-12-13T14:18:22.009Z,24.25
2022-12-13T14:20:07.792Z,24.23
2022-12-13T14:21:38.618Z,25.10
2022-12-13T14:22:46.725Z,24.23
2022-12-13T14:24:01.763Z,24.35
2022-12-13T14:25:24.522Z,24.15
2022-12-13T14:26:43.346Z,25.75
2022-12-13T14:27:49.949Z,25.27
2022-12-13T14:28:57.191Z,24.50
2022-12-13T14:29:59.990Z,24.52
2022-12-13T14:31:03.290Z,24.65
2022-12-13T14:32:26.367Z,24.92
2022-12-13T14:33:30.947Z,24.15
2022-12-13T14:34:35.091Z,24.77
2022-12-13T14:35:38.243Z,25.00
2022-12-13T14:36:45.243Z,25.95
2022-12-13T14:38:00.932Z,25.27
2022-12-13T14:39:05.930Z,25.50
2022-12-13T14:40:27.670Z,25.10
2022-12-13T14:41:31.061Z,25.15
2022-12-13T14:42:35.801Z,24.50
2022-12-13T14:43:39.076Z,24.80
2022-12-13T14:44:42.318Z,24.52
2022-12-13T14:45:46.306Z,23.88
2022-12-13T14:46:50.949Z,26.50
2022-12-13T14:47:55.211Z,26.65
2022-12-13T14:49:01.624Z,27.38